Alekseyevka, Russia

12:47 AM MSK on June 23, 2018 (GMT +0300)
Astrakhan | | Change Station

Elev 66 ft 46.28 °N, 48.00 °E | Updated 47 minutes ago

Clear
Clear
66 °F
Feels Like 66 °F
N
4
Wind Variable Wind from SW

Today
High -- | Low -- °F
--% Chance of Precip.
Yesterday
High -- | Low -- °F
Precip. -- in
Pressure 29.83 in
Visibility -9999.0 miles
Clouds
Dew Point 55 °F
Humidity 68%
Rainfall 0.00 in
Snow Depth Not available.
3:58 AM 7:43 PM
Waxing Gibbous, 75% visible
METAR URWA 222100Z 23002MPS 210V270 CAVOK 19/13 Q1010 R09/010070 NOSIG RMK QFE759/1013
Pressure 29.83 in
Visibility -9999.0 miles
Clouds
Dew Point 55 °F
Humidity 68%
Rainfall 0.00 in
Snow Depth Not available.
3:58 AM 7:43 PM
Waxing Gibbous, 75% visible
METAR URWA 222100Z 23002MPS 210V270 CAVOK 19/13 Q1010 R09/010070 NOSIG RMK QFE759/1013

Get Severe Weather Alerts

Thanks for signing up!

Be on the lookout for a verification email in your inbox.

You'll start receiving the daily forecast at 6 AM.

×

10-Day Weather Forecast

×

Almanac

Astronomy

Jun. 23, 2018 Rise Set
Actual Time
Civil Twilight
Nautical Twilight
Astronomical Twilight
Moon
Length of Visible Light
Length of Day
Tomorrow will be .
, % of the Moon is Illuminated

Today's Extremes

Country Highs Country Lows

Community

WunderPhotos

Category 6

Welcome to Category 6. This is the collective home for Weather Underground's featured writeups by Dr. Jeff Masters (right), Bob Henson (left), Chris Burt, and other regular contributors.

Nearby

Air Quality

  Air Quality AQ Index Pollutant
Not available.

Snow Depth

Station Depth Elevation

Earthquake Activity

City Distance Mag. Time & Date
Minimum magnitude displayed is 2.5.

Coastal Water Temperatures

Place Temperature

Stations

Nearby Weather Stations

Station Location Temp. Windchill Dew Point Humidity Wind Precip. Elev Updated Type